TLH weather

Public forecast

Using degrees Fahrenheit for public forecast. Weather courtesy of forecast.io.

Current aviation weather report (METAR) for Tallahassee Regional Airport

Retrieved 2020/08/11 22:53 UTC (50 minutes ago):

KTLH 112253Z 31003KT 10SM FEW040 SCT100 24/24 A3000 RMK AO2 TSE09 SLP157 T02390239

Aviation forecast (TAF) for Tallahassee Regional Airport

Retrieved 2020/08/11 18:22 UTC (5 hours ago):

TAF KTLH 111720Z 1118/1218 VRB04KT P6SM VCTS SCT025CB BKN050 BKN160 TEMPO 1118/1122 VRB15G25KT 3SM TSRA BKN025CB FM120000 VRB04KT P6SM SCT050